sensor_id;sensor_type;location;lat;lon;timestamp;pressure;altitude;pressure_sealevel;temperature;humidity
46690;BME280;32423;45.398;10.874;2023-02-20T00:02:33;101699.34;;;12.39;60.28
46690;BME280;32423;45.398;10.874;2023-02-20T00:05:25;101705.41;;;12.22;61.50
46690;BME280;32423;45.398;10.874;2023-02-20T00:08:17;101711.25;;;12.16;62.26
46690;BME280;32423;45.398;10.874;2023-02-20T00:11:09;101714.19;;;12.33;61.52
46690;BME280;32423;45.398;10.874;2023-02-20T00:14:01;101711.28;;;12.43;61.34
46690;BME280;32423;45.398;10.874;2023-02-20T00:16:53;101712.56;;;12.46;61.34
46690;BME280;32423;45.398;10.874;2023-02-20T00:19:45;101710.94;;;12.44;61.45
46690;BME280;32423;45.398;10.874;2023-02-20T00:22:37;101715.63;;;12.44;61.14
46690;BME280;32423;45.398;10.874;2023-02-20T00:25:30;101719.75;;;12.41;61.43
46690;BME280;32423;45.398;10.874;2023-02-20T00:28:19;101713.69;;;12.44;61.09
46690;BME280;32423;45.398;10.874;2023-02-20T00:31:10;101720.97;;;12.49;61.34
46690;BME280;32423;45.398;10.874;2023-02-20T00:34:03;101720.16;;;12.49;61.23
46690;BME280;32423;45.398;10.874;2023-02-20T00:36:55;101723.19;;;12.47;61.51
46690;BME280;32423;45.398;10.874;2023-02-20T00:39:47;101724.00;;;12.48;61.29
46690;BME280;32423;45.398;10.874;2023-02-20T00:42:39;101727.84;;;12.47;61.30
46690;BME280;32423;45.398;10.874;2023-02-20T00:45:28;101718.84;;;12.46;61.34
46690;BME280;32423;45.398;10.874;2023-02-20T00:48:20;101717.72;;;12.47;61.42
46690;BME280;32423;45.398;10.874;2023-02-20T00:51:30;101721.84;;;12.44;61.27
46690;BME280;32423;45.398;10.874;2023-02-20T00:54:22;101729.38;;;12.39;61.51
46690;BME280;32423;45.398;10.874;2023-02-20T00:57:09;101733.19;;;12.38;61.37
46690;BME280;32423;45.398;10.874;2023-02-20T01:00:01;101726.94;;;12.37;61.73
46690;BME280;32423;45.398;10.874;2023-02-20T01:02:53;101727.22;;;12.36;61.67
46690;BME280;32423;45.398;10.874;2023-02-20T01:05:45;101729.84;;;12.41;61.81
46690;BME280;32423;45.398;10.874;2023-02-20T01:08:37;101723.91;;;12.39;61.63
46690;BME280;32423;45.398;10.874;2023-02-20T01:11:29;101725.59;;;12.35;61.99
46690;BME280;32423;45.398;10.874;2023-02-20T01:14:21;101720.16;;;12.35;62.04
46690;BME280;32423;45.398;10.874;2023-02-20T01:17:11;101724.41;;;12.41;61.65
46690;BME280;32423;45.398;10.874;2023-02-20T01:20:01;101722.66;;;12.45;61.42
46690;BME280;32423;45.398;10.874;2023-02-20T01:22:50;101720.94;;;12.35;62.08
46690;BME280;32423;45.398;10.874;2023-02-20T01:25:39;101724.00;;;12.34;62.09
46690;BME280;32423;45.398;10.874;2023-02-20T01:28:31;101726.72;;;12.34;62.18
46690;BME280;32423;45.398;10.874;2023-02-20T01:31:23;101725.50;;;12.26;62.15
46690;BME280;32423;45.398;10.874;2023-02-20T01:34:15;101714.88;;;12.25;62.24
46690;BME280;32423;45.398;10.874;2023-02-20T01:37:09;101705.00;;;12.29;61.96
46690;BME280;32423;45.398;10.874;2023-02-20T01:40:01;101713.50;;;12.27;61.80
46690;BME280;32423;45.398;10.874;2023-02-20T01:42:51;101709.94;;;12.27;61.70
46690;BME280;32423;45.398;10.874;2023-02-20T01:45:43;101712.69;;;12.27;61.52
46690;BME280;32423;45.398;10.874;2023-02-20T01:48:34;101707.03;;;12.23;61.73
46690;BME280;32423;45.398;10.874;2023-02-20T01:51:28;101720.56;;;12.28;61.38
46690;BME280;32423;45.398;10.874;2023-02-20T01:54:21;101714.41;;;12.23;61.51
46690;BME280;32423;45.398;10.874;2023-02-20T01:57:14;101724.78;;;12.21;61.58
46690;BME280;32423;45.398;10.874;2023-02-20T02:00:12;101713.38;;;12.19;61.69
46690;BME280;32423;45.398;10.874;2023-02-20T02:03:09;101725.31;;;12.23;61.45
46690;BME280;32423;45.398;10.874;2023-02-20T02:06:02;101741.97;;;12.21;61.49
46690;BME280;32423;45.398;10.874;2023-02-20T02:08:55;101745.06;;;12.15;61.91
46690;BME280;32423;45.398;10.874;2023-02-20T02:11:49;101746.09;;;12.19;61.84
46690;BME280;32423;45.398;10.874;2023-02-20T02:14:40;101741.25;;;12.16;61.59
46690;BME280;32423;45.398;10.874;2023-02-20T02:35:58;101741.94;;;12.08;61.87
46690;BME280;32423;45.398;10.874;2023-02-20T02:38:44;101742.34;;;12.15;61.91
46690;BME280;32423;45.398;10.874;2023-02-20T02:44:46;101745.50;;;12.22;61.53
46690;BME280;32423;45.398;10.874;2023-02-20T02:47:45;101749.72;;;12.14;61.73
46690;BME280;32423;45.398;10.874;2023-02-20T02:50:38;101748.22;;;12.08;62.12
46690;BME280;32423;45.398;10.874;2023-02-20T02:53:32;101753.13;;;12.06;61.92
46690;BME280;32423;45.398;10.874;2023-02-20T02:56:31;101754.47;;;12.09;62.03
46690;BME280;32423;45.398;10.874;2023-02-20T02:59:27;101752.22;;;12.11;61.57
46690;BME280;32423;45.398;10.874;2023-02-20T03:02:20;101761.03;;;12.08;61.90
46690;BME280;32423;45.398;10.874;2023-02-20T03:05:08;101761.94;;;12.03;61.92
46690;BME280;32423;45.398;10.874;2023-02-20T03:08:01;101760.78;;;12.04;61.92
46690;BME280;32423;45.398;10.874;2023-02-20T03:10:51;101760.69;;;12.09;61.53
46690;BME280;32423;45.398;10.874;2023-02-20T03:13:43;101766.78;;;12.06;61.80
46690;BME280;32423;45.398;10.874;2023-02-20T03:19:48;101775.47;;;12.08;61.69
46690;BME280;32423;45.398;10.874;2023-02-20T03:22:40;101771.94;;;12.08;61.54
46690;BME280;32423;45.398;10.874;2023-02-20T03:25:35;101775.66;;;12.12;61.65
46690;BME280;32423;45.398;10.874;2023-02-20T03:28:29;101775.75;;;12.07;61.65
46690;BME280;32423;45.398;10.874;2023-02-20T03:31:22;101771.13;;;12.07;61.55
46690;BME280;32423;45.398;10.874;2023-02-20T03:34:17;101780.59;;;12.10;61.65
46690;BME280;32423;45.398;10.874;2023-02-20T03:37:24;101778.50;;;12.07;61.50
46690;BME280;32423;45.398;10.874;2023-02-20T03:40:34;101788.41;;;12.16;61.41
46690;BME280;32423;45.398;10.874;2023-02-20T03:43:44;101793.03;;;12.16;61.14
46690;BME280;32423;45.398;10.874;2023-02-20T03:46:37;101792.56;;;12.14;61.41
46690;BME280;32423;45.398;10.874;2023-02-20T03:49:30;101789.22;;;12.17;61.18
46690;BME280;32423;45.398;10.874;2023-02-20T03:52:23;101789.75;;;12.19;60.95
46690;BME280;32423;45.398;10.874;2023-02-20T03:55:15;101779.94;;;12.18;61.09
46690;BME280;32423;45.398;10.874;2023-02-20T03:58:07;101788.41;;;12.16;60.93
46690;BME280;32423;45.398;10.874;2023-02-20T04:01:02;101789.41;;;12.20;60.93
46690;BME280;32423;45.398;10.874;2023-02-20T04:03:54;101801.13;;;12.21;60.84
46690;BME280;32423;45.398;10.874;2023-02-20T04:06:47;101803.38;;;12.19;60.90
46690;BME280;32423;45.398;10.874;2023-02-20T04:09:41;101802.25;;;12.20;60.86
46690;BME280;32423;45.398;10.874;2023-02-20T04:12:37;101811.38;;;12.29;60.89
46690;BME280;32423;45.398;10.874;2023-02-20T04:15:30;101812.47;;;12.28;60.62
46690;BME280;32423;45.398;10.874;2023-02-20T04:18:22;101818.75;;;12.28;60.65
46690;BME280;32423;45.398;10.874;2023-02-20T04:21:21;101818.84;;;12.23;60.99
46690;BME280;32423;45.398;10.874;2023-02-20T04:24:14;101823.78;;;12.35;60.34
46690;BME280;32423;45.398;10.874;2023-02-20T04:27:08;101824.50;;;12.27;60.65
46690;BME280;32423;45.398;10.874;2023-02-20T04:30:06;101825.88;;;12.24;60.79
46690;BME280;32423;45.398;10.874;2023-02-20T04:32:58;101824.19;;;12.28;60.66
46690;BME280;32423;45.398;10.874;2023-02-20T04:35:51;101825.50;;;12.31;60.63
46690;BME280;32423;45.398;10.874;2023-02-20T04:38:43;101837.50;;;12.30;60.59
46690;BME280;32423;45.398;10.874;2023-02-20T04:41:36;101828.75;;;12.33;60.60
46690;BME280;32423;45.398;10.874;2023-02-20T04:44:28;101829.03;;;12.31;60.56
46690;BME280;32423;45.398;10.874;2023-02-20T04:47:23;101833.19;;;12.29;60.71
46690;BME280;32423;45.398;10.874;2023-02-20T04:50:15;101837.22;;;12.31;61.00
46690;BME280;32423;45.398;10.874;2023-02-20T04:53:10;101844.41;;;12.27;61.00
46690;BME280;32423;45.398;10.874;2023-02-20T04:56:02;101838.13;;;12.27;60.73
46690;BME280;32423;45.398;10.874;2023-02-20T04:58:55;101846.91;;;12.24;60.97
46690;BME280;32423;45.398;10.874;2023-02-20T05:01:47;101852.50;;;12.32;60.98
46690;BME280;32423;45.398;10.874;2023-02-20T05:04:39;101854.94;;;12.34;60.78
46690;BME280;32423;45.398;10.874;2023-02-20T05:07:31;101850.50;;;12.38;60.56
46690;BME280;32423;45.398;10.874;2023-02-20T05:10:20;101845.03;;;12.38;60.70
46690;BME280;32423;45.398;10.874;2023-02-20T05:13:12;101849.97;;;12.36;60.72
46690;BME280;32423;45.398;10.874;2023-02-20T05:16:05;101858.44;;;12.34;60.93
46690;BME280;32423;45.398;10.874;2023-02-20T05:18:56;101861.25;;;12.29;60.89
46690;BME280;32423;45.398;10.874;2023-02-20T05:21:46;101865.03;;;12.33;60.70
46690;BME280;32423;45.398;10.874;2023-02-20T05:24:54;101855.72;;;12.34;60.86
46690;BME280;32423;45.398;10.874;2023-02-20T05:27:46;101857.75;;;12.29;60.97
46690;BME280;32423;45.398;10.874;2023-02-20T05:30:38;101847.31;;;12.31;60.99
46690;BME280;32423;45.398;10.874;2023-02-20T05:33:30;101862.66;;;12.27;60.96
46690;BME280;32423;45.398;10.874;2023-02-20T05:36:20;101861.56;;;12.28;61.01
46690;BME280;32423;45.398;10.874;2023-02-20T05:39:11;101859.94;;;12.27;60.89
46690;BME280;32423;45.398;10.874;2023-02-20T05:42:04;101863.19;;;12.29;60.97
46690;BME280;32423;45.398;10.874;2023-02-20T05:44:55;101860.97;;;12.31;60.96
46690;BME280;32423;45.398;10.874;2023-02-20T05:47:47;101855.31;;;12.27;60.87
46690;BME280;32423;45.398;10.874;2023-02-20T05:50:40;101855.59;;;12.26;61.01
46690;BME280;32423;45.398;10.874;2023-02-20T05:53:36;101863.84;;;12.21;61.12
46690;BME280;32423;45.398;10.874;2023-02-20T05:56:26;101865.19;;;12.23;61.21
46690;BME280;32423;45.398;10.874;2023-02-20T05:59:18;101867.03;;;12.28;61.12
46690;BME280;32423;45.398;10.874;2023-02-20T06:02:10;101863.69;;;12.31;61.20
46690;BME280;32423;45.398;10.874;2023-02-20T06:05:02;101864.78;;;12.30;61.13
46690;BME280;32423;45.398;10.874;2023-02-20T06:07:54;101871.88;;;12.31;60.92
46690;BME280;32423;45.398;10.874;2023-02-20T06:10:46;101867.31;;;12.26;61.27
46690;BME280;32423;45.398;10.874;2023-02-20T06:13:35;101878.00;;;12.23;61.39
46690;BME280;32423;45.398;10.874;2023-02-20T06:16:27;101884.56;;;12.22;61.53
46690;BME280;32423;45.398;10.874;2023-02-20T06:19:23;101885.09;;;12.24;61.53
46690;BME280;32423;45.398;10.874;2023-02-20T06:22:15;101887.22;;;12.27;61.33
46690;BME280;32423;45.398;10.874;2023-02-20T06:25:07;101899.75;;;12.28;61.22
46690;BME280;32423;45.398;10.874;2023-02-20T06:27:59;101904.19;;;12.24;61.55
46690;BME280;32423;45.398;10.874;2023-02-20T06:30:46;101905.22;;;12.28;61.34
46690;BME280;32423;45.398;10.874;2023-02-20T06:33:38;101912.88;;;12.26;61.53
46690;BME280;32423;45.398;10.874;2023-02-20T06:36:33;101912.50;;;12.32;61.62
46690;BME280;32423;45.398;10.874;2023-02-20T06:39:26;101903.22;;;12.33;61.64
46690;BME280;32423;45.398;10.874;2023-02-20T06:42:18;101918.97;;;12.36;61.45
46690;BME280;32423;45.398;10.874;2023-02-20T06:45:07;101920.81;;;12.41;61.62
46690;BME280;32423;45.398;10.874;2023-02-20T06:47:59;101917.59;;;12.39;61.64
46690;BME280;32423;45.398;10.874;2023-02-20T06:50:50;101915.19;;;12.51;62.67
46690;BME280;32423;45.398;10.874;2023-02-20T06:53:46;101923.19;;;12.10;64.58
46690;BME280;32423;45.398;10.874;2023-02-20T06:56:41;101930.53;;;11.72;64.74
46690;BME280;32423;45.398;10.874;2023-02-20T06:59:33;101936.56;;;11.69;64.54
46690;BME280;32423;45.398;10.874;2023-02-20T07:02:30;101948.63;;;10.92;67.12
46690;BME280;32423;45.398;10.874;2023-02-20T07:05:25;101939.31;;;11.22;66.43
46690;BME280;32423;45.398;10.874;2023-02-20T07:08:20;101950.00;;;10.21;69.69
46690;BME280;32423;45.398;10.874;2023-02-20T07:11:14;101955.41;;;10.26;70.10
46690;BME280;32423;45.398;10.874;2023-02-20T07:14:07;101955.75;;;10.15;71.19
46690;BME280;32423;45.398;10.874;2023-02-20T07:17:02;101955.78;;;10.49;70.02
46690;BME280;32423;45.398;10.874;2023-02-20T07:19:56;101946.63;;;10.40;69.73
46690;BME280;32423;45.398;10.874;2023-02-20T07:22:54;101954.75;;;10.45;68.51
46690;BME280;32423;45.398;10.874;2023-02-20T07:25:46;101950.03;;;10.16;69.44
46690;BME280;32423;45.398;10.874;2023-02-20T07:28:41;101945.59;;;9.81;70.81
46690;BME280;32423;45.398;10.874;2023-02-20T07:31:35;101945.31;;;10.32;69.19
46690;BME280;32423;45.398;10.874;2023-02-20T07:34:30;101948.88;;;10.27;69.04
46690;BME280;32423;45.398;10.874;2023-02-20T07:37:24;101957.16;;;10.02;69.84
46690;BME280;32423;45.398;10.874;2023-02-20T07:40:19;101954.22;;;9.94;70.05
46690;BME280;32423;45.398;10.874;2023-02-20T07:43:14;101952.28;;;10.43;69.50
46690;BME280;32423;45.398;10.874;2023-02-20T07:46:12;101957.91;;;10.13;69.79
46690;BME280;32423;45.398;10.874;2023-02-20T07:49:07;101954.50;;;9.92;71.60
46690;BME280;32423;45.398;10.874;2023-02-20T07:52:01;101953.34;;;10.03;71.44
46690;BME280;32423;45.398;10.874;2023-02-20T07:54:56;101954.00;;;9.90;72.02
46690;BME280;32423;45.398;10.874;2023-02-20T07:57:51;101952.63;;;9.87;72.49
46690;BME280;32423;45.398;10.874;2023-02-20T08:00:45;101959.53;;;9.70;73.67
46690;BME280;32423;45.398;10.874;2023-02-20T08:03:39;101957.28;;;9.82;73.48
46690;BME280;32423;45.398;10.874;2023-02-20T08:06:31;101952.34;;;9.89;73.53
46690;BME280;32423;45.398;10.874;2023-02-20T08:09:26;101955.13;;;9.79;74.41
46690;BME280;32423;45.398;10.874;2023-02-20T08:12:20;101963.50;;;9.87;74.40
46690;BME280;32423;45.398;10.874;2023-02-20T08:15:16;101955.03;;;9.99;74.41
46690;BME280;32423;45.398;10.874;2023-02-20T08:18:08;101958.75;;;10.08;74.38
46690;BME280;32423;45.398;10.874;2023-02-20T08:20:57;101961.25;;;10.05;75.09
46690;BME280;32423;45.398;10.874;2023-02-20T08:23:52;101958.47;;;10.20;74.19
46690;BME280;32423;45.398;10.874;2023-02-20T08:26:48;101971.59;;;10.42;73.19
46690;BME280;32423;45.398;10.874;2023-02-20T08:29:43;101982.06;;;10.24;74.11
46690;BME280;32423;45.398;10.874;2023-02-20T08:32:35;101979.56;;;10.33;73.74
46690;BME280;32423;45.398;10.874;2023-02-20T08:35:30;101983.03;;;10.44;73.30
46690;BME280;32423;45.398;10.874;2023-02-20T08:38:30;101977.91;;;10.37;73.65
46690;BME280;32423;45.398;10.874;2023-02-20T08:41:26;101979.47;;;10.77;71.88
46690;BME280;32423;45.398;10.874;2023-02-20T08:44:20;101979.09;;;10.60;72.10
46690;BME280;32423;45.398;10.874;2023-02-20T08:47:15;101979.41;;;10.53;72.30
46690;BME280;32423;45.398;10.874;2023-02-20T08:50:12;101986.91;;;10.33;72.80
46690;BME280;32423;45.398;10.874;2023-02-20T08:53:06;101972.88;;;10.54;72.46
46690;BME280;32423;45.398;10.874;2023-02-20T08:56:01;101982.06;;;10.63;72.14
46690;BME280;32423;45.398;10.874;2023-02-20T08:58:56;101996.00;;;10.52;72.02
46690;BME280;32423;45.398;10.874;2023-02-20T09:01:51;101987.50;;;10.92;70.15
46690;BME280;32423;45.398;10.874;2023-02-20T09:04:45;101987.19;;;10.70;71.34
46690;BME280;32423;45.398;10.874;2023-02-20T09:07:37;101987.38;;;10.79;71.78
46690;BME280;32423;45.398;10.874;2023-02-20T09:10:32;101992.25;;;10.82;70.84
46690;BME280;32423;45.398;10.874;2023-02-20T09:13:24;101982.06;;;10.92;70.52
46690;BME280;32423;45.398;10.874;2023-02-20T09:16:18;101980.88;;;10.75;71.32
46690;BME280;32423;45.398;10.874;2023-02-20T09:19:14;101973.25;;;11.05;70.55
46690;BME280;32423;45.398;10.874;2023-02-20T09:22:06;101981.66;;;11.33;69.51
46690;BME280;32423;45.398;10.874;2023-02-20T09:25:00;101981.25;;;11.21;70.60
46690;BME280;32423;45.398;10.874;2023-02-20T09:27:55;101985.28;;;11.52;70.14
46690;BME280;32423;45.398;10.874;2023-02-20T09:30:50;101993.66;;;11.55;70.00
46690;BME280;32423;45.398;10.874;2023-02-20T09:33:43;101989.66;;;11.48;69.18
46690;BME280;32423;45.398;10.874;2023-02-20T09:36:35;101981.97;;;11.55;68.38
46690;BME280;32423;45.398;10.874;2023-02-20T09:39:27;101974.81;;;11.59;68.39
46690;BME280;32423;45.398;10.874;2023-02-20T09:42:28;101974.81;;;11.59;68.27
46690;BME280;32423;45.398;10.874;2023-02-20T09:45:26;101978.00;;;11.66;68.20
46690;BME280;32423;45.398;10.874;2023-02-20T09:48:30;101957.28;;;11.89;67.68
46690;BME280;32423;45.398;10.874;2023-02-20T09:51:28;101958.28;;;12.17;67.44
46690;BME280;32423;45.398;10.874;2023-02-20T09:54:28;101955.63;;;12.12;66.40
46690;BME280;32423;45.398;10.874;2023-02-20T09:57:20;101958.19;;;12.40;64.52
46690;BME280;32423;45.398;10.874;2023-02-20T10:00:32;101959.94;;;12.50;63.15
46690;BME280;32423;45.398;10.874;2023-02-20T10:03:38;101953.66;;;12.68;62.35
46690;BME280;32423;45.398;10.874;2023-02-20T10:06:33;101961.16;;;12.90;62.17
46690;BME280;32423;45.398;10.874;2023-02-20T10:09:23;101957.28;;;12.64;61.85
46690;BME280;32423;45.398;10.874;2023-02-20T10:15:31;101960.56;;;12.61;61.32
46690;BME280;32423;45.398;10.874;2023-02-20T10:22:03;101958.09;;;12.64;61.23
46690;BME280;32423;45.398;10.874;2023-02-20T10:28:10;101951.28;;;13.08;60.09
46690;BME280;32423;45.398;10.874;2023-02-20T10:34:17;101950.66;;;12.83;60.17
46690;BME280;32423;45.398;10.874;2023-02-20T10:37:15;101944.66;;;13.14;60.05
46690;BME280;32423;45.398;10.874;2023-02-20T10:40:23;101941.25;;;13.36;59.77
46690;BME280;32423;45.398;10.874;2023-02-20T10:43:24;101937.06;;;13.38;59.46
46690;BME280;32423;45.398;10.874;2023-02-20T10:46:25;101937.28;;;13.28;59.62
46690;BME280;32423;45.398;10.874;2023-02-20T10:49:25;101935.97;;;13.39;59.77
46690;BME280;32423;45.398;10.874;2023-02-20T10:52:36;101921.88;;;13.59;59.02
46690;BME280;32423;45.398;10.874;2023-02-20T10:55:36;101924.63;;;13.59;58.82
46690;BME280;32423;45.398;10.874;2023-02-20T11:01:59;101917.81;;;14.42;56.37
46690;BME280;32423;45.398;10.874;2023-02-20T11:05:04;101915.38;;;15.33;54.30
46690;BME280;32423;45.398;10.874;2023-02-20T11:08:00;101917.91;;;14.60;54.96
46690;BME280;32423;45.398;10.874;2023-02-20T11:10:55;101906.44;;;14.80;54.40
46690;BME280;32423;45.398;10.874;2023-02-20T11:13:51;101901.63;;;16.33;50.71
46690;BME280;32423;45.398;10.874;2023-02-20T11:17:08;101896.31;;;16.02;50.26
46690;BME280;32423;45.398;10.874;2023-02-20T11:20:01;101891.84;;;15.32;52.04
46690;BME280;32423;45.398;10.874;2023-02-20T11:22:53;101882.63;;;14.89;54.32
46690;BME280;32423;45.398;10.874;2023-02-20T11:25:48;101879.09;;;14.88;53.84
46690;BME280;32423;45.398;10.874;2023-02-20T11:28:43;101871.09;;;15.09;53.38
46690;BME280;32423;45.398;10.874;2023-02-20T11:31:37;101862.78;;;15.23;53.39
46690;BME280;32423;45.398;10.874;2023-02-20T11:34:31;101867.75;;;15.12;53.49
46690;BME280;32423;45.398;10.874;2023-02-20T11:37:25;101857.97;;;14.89;53.80
46690;BME280;32423;45.398;10.874;2023-02-20T11:40:29;101854.97;;;15.56;52.17
46690;BME280;32423;45.398;10.874;2023-02-20T11:43:25;101846.28;;;15.54;52.05
46690;BME280;32423;45.398;10.874;2023-02-20T11:46:19;101840.94;;;14.92;53.03
46690;BME280;32423;45.398;10.874;2023-02-20T11:49:34;101849.97;;;15.75;51.17
46690;BME280;32423;45.398;10.874;2023-02-20T11:52:29;101841.38;;;15.33;51.62
46690;BME280;32423;45.398;10.874;2023-02-20T11:55:24;101840.94;;;15.01;52.14
46690;BME280;32423;45.398;10.874;2023-02-20T11:58:27;101829.63;;;14.54;53.42
46690;BME280;32423;45.398;10.874;2023-02-20T12:01:33;101825.56;;;14.21;54.21
46690;BME280;32423;45.398;10.874;2023-02-20T12:04:27;101826.84;;;14.23;53.73
46690;BME280;32423;45.398;10.874;2023-02-20T12:07:25;101828.09;;;14.17;54.30
46690;BME280;32423;45.398;10.874;2023-02-20T12:13:21;101817.53;;;14.46;53.84
46690;BME280;32423;45.398;10.874;2023-02-20T12:16:31;101816.44;;;14.47;52.94
46690;BME280;32423;45.398;10.874;2023-02-20T12:22:41;101814.53;;;14.57;53.02
46690;BME280;32423;45.398;10.874;2023-02-20T12:41:26;101785.97;;;14.49;53.37
46690;BME280;32423;45.398;10.874;2023-02-20T12:48:00;101780.00;;;14.16;53.30
46690;BME280;32423;45.398;10.874;2023-02-20T12:51:10;101766.59;;;14.06;53.70
46690;BME280;32423;45.398;10.874;2023-02-20T13:10:17;101753.47;;;14.47;53.93
46690;BME280;32423;45.398;10.874;2023-02-20T13:13:13;101748.22;;;14.68;53.16
46690;BME280;32423;45.398;10.874;2023-02-20T13:16:15;101746.91;;;14.26;54.55
46690;BME280;32423;45.398;10.874;2023-02-20T13:20:17;101736.53;;;14.14;54.49
46690;BME280;32423;45.398;10.874;2023-02-20T13:22:39;101729.25;;;14.01;55.35
46690;BME280;32423;45.398;10.874;2023-02-20T13:25:46;101732.00;;;14.10;55.03
46690;BME280;32423;45.398;10.874;2023-02-20T13:28:44;101720.22;;;14.32;54.22
46690;BME280;32423;45.398;10.874;2023-02-20T13:31:42;101720.53;;;14.30;54.02
46690;BME280;32423;45.398;10.874;2023-02-20T13:34:38;101723.56;;;14.29;54.36
46690;BME280;32423;45.398;10.874;2023-02-20T13:43:29;101705.34;;;14.16;55.69
46690;BME280;32423;45.398;10.874;2023-02-20T13:46:21;101698.69;;;14.08;55.63
46690;BME280;32423;45.398;10.874;2023-02-20T13:49:52;101703.84;;;13.79;55.73
46690;BME280;32423;45.398;10.874;2023-02-20T13:52:39;101691.56;;;13.98;55.39
46690;BME280;32423;45.398;10.874;2023-02-20T13:55:32;101696.34;;;13.93;55.74
46690;BME280;32423;45.398;10.874;2023-02-20T13:58:25;101701.28;;;14.13;55.13
46690;BME280;32423;45.398;10.874;2023-02-20T14:01:17;101697.72;;;14.04;55.05
46690;BME280;32423;45.398;10.874;2023-02-20T14:04:19;101693.03;;;14.04;55.04
46690;BME280;32423;45.398;10.874;2023-02-20T14:07:11;101689.22;;;14.14;54.72
46690;BME280;32423;45.398;10.874;2023-02-20T14:10:13;101685.16;;;14.03;54.86
46690;BME280;32423;45.398;10.874;2023-02-20T14:13:14;101688.09;;;14.06;55.18
46690;BME280;32423;45.398;10.874;2023-02-20T14:16:34;101678.72;;;14.38;54.43
46690;BME280;32423;45.398;10.874;2023-02-20T14:19:30;101677.56;;;14.31;54.23
46690;BME280;32423;45.398;10.874;2023-02-20T14:22:28;101678.72;;;14.38;54.15
46690;BME280;32423;45.398;10.874;2023-02-20T14:25:28;101680.34;;;14.39;53.64
46690;BME280;32423;45.398;10.874;2023-02-20T14:28:23;101675.59;;;14.71;53.62
46690;BME280;32423;45.398;10.874;2023-02-20T14:31:35;101666.78;;;14.91;52.70
46690;BME280;32423;45.398;10.874;2023-02-20T14:40:43;101665.50;;;15.23;51.63
46690;BME280;32423;45.398;10.874;2023-02-20T14:43:37;101663.88;;;14.87;51.92
46690;BME280;32423;45.398;10.874;2023-02-20T14:46:34;101667.25;;;14.84;51.44
46690;BME280;32423;45.398;10.874;2023-02-20T14:49:26;101657.09;;;14.85;50.73
46690;BME280;32423;45.398;10.874;2023-02-20T14:52:26;101657.72;;;14.73;50.22
46690;BME280;32423;45.398;10.874;2023-02-20T14:55:26;101656.00;;;15.03;50.49
46690;BME280;32423;45.398;10.874;2023-02-20T14:58:21;101657.28;;;14.97;50.21
46690;BME280;32423;45.398;10.874;2023-02-20T15:01:19;101650.66;;;15.15;50.15
46690;BME280;32423;45.398;10.874;2023-02-20T15:04:23;101647.91;;;15.32;49.80
46690;BME280;32423;45.398;10.874;2023-02-20T15:07:15;101645.16;;;14.81;50.47
46690;BME280;32423;45.398;10.874;2023-02-20T15:13:21;101650.00;;;14.75;50.92
46690;BME280;32423;45.398;10.874;2023-02-20T15:16:22;101642.13;;;14.82;50.80
46690;BME280;32423;45.398;10.874;2023-02-20T15:19:33;101649.53;;;15.08;50.45
46690;BME280;32423;45.398;10.874;2023-02-20T15:22:32;101643.91;;;15.13;50.62
46690;BME280;32423;45.398;10.874;2023-02-20T15:25:30;101649.38;;;14.95;50.64
46690;BME280;32423;45.398;10.874;2023-02-20T15:28:28;101645.63;;;14.66;51.56
46690;BME280;32423;45.398;10.874;2023-02-20T15:31:26;101637.53;;;14.43;52.73
46690;BME280;32423;45.398;10.874;2023-02-20T15:34:30;101650.03;;;14.27;52.53
46690;BME280;32423;45.398;10.874;2023-02-20T15:37:29;101638.22;;;14.58;52.57
46690;BME280;32423;45.398;10.874;2023-02-20T15:40:27;101638.84;;;14.54;52.46
46690;BME280;32423;45.398;10.874;2023-02-20T15:43:22;101641.25;;;14.47;52.26
46690;BME280;32423;45.398;10.874;2023-02-20T15:46:16;101645.63;;;14.74;51.98
46690;BME280;32423;45.398;10.874;2023-02-20T15:49:11;101647.56;;;14.74;51.42
46690;BME280;32423;45.398;10.874;2023-02-20T15:52:03;101649.53;;;14.82;51.98
46690;BME280;32423;45.398;10.874;2023-02-20T15:54:57;101651.59;;;14.93;51.77
46690;BME280;32423;45.398;10.874;2023-02-20T15:57:55;101642.13;;;15.08;51.46
46690;BME280;32423;45.398;10.874;2023-02-20T16:00:51;101648.41;;;15.00;51.87
46690;BME280;32423;45.398;10.874;2023-02-20T16:03:43;101647.59;;;14.99;51.65
46690;BME280;32423;45.398;10.874;2023-02-20T16:06:37;101647.44;;;14.87;51.34
46690;BME280;32423;45.398;10.874;2023-02-20T16:09:31;101643.09;;;14.78;51.39
46690;BME280;32423;45.398;10.874;2023-02-20T16:12:27;101645.50;;;14.88;50.85
46690;BME280;32423;45.398;10.874;2023-02-20T16:15:22;101648.41;;;14.91;50.82
46690;BME280;32423;45.398;10.874;2023-02-20T16:18:17;101653.66;;;14.53;52.21
46690;BME280;32423;45.398;10.874;2023-02-20T16:21:12;101644.41;;;14.32;53.05
46690;BME280;32423;45.398;10.874;2023-02-20T16:24:06;101643.50;;;14.06;54.25
46690;BME280;32423;45.398;10.874;2023-02-20T16:26:58;101645.47;;;14.14;54.31
46690;BME280;32423;45.398;10.874;2023-02-20T16:29:53;101643.19;;;14.07;54.44
46690;BME280;32423;45.398;10.874;2023-02-20T16:32:46;101639.34;;;14.17;54.49
46690;BME280;32423;45.398;10.874;2023-02-20T16:35:40;101639.34;;;14.17;54.49
46690;BME280;32423;45.398;10.874;2023-02-20T16:38:35;101646.00;;;14.25;54.50
46690;BME280;32423;45.398;10.874;2023-02-20T16:41:29;101642.84;;;14.40;54.00
46690;BME280;32423;45.398;10.874;2023-02-20T16:44:30;101642.84;;;14.48;53.84